sensor_id;sensor_type;location;lat;lon;timestamp;temperature;humidity
22132;DHT22;11232;51.748;19.390;2022-12-29T00:02:14;5.30;99.90
22132;DHT22;11232;51.748;19.390;2022-12-29T00:04:40;4.70;99.90
22132;DHT22;11232;51.748;19.390;2022-12-29T00:07:06;4.80;99.90
22132;DHT22;11232;51.748;19.390;2022-12-29T00:09:32;5.70;99.90
22132;DHT22;11232;51.748;19.390;2022-12-29T00:11:59;6.20;99.90
22132;DHT22;11232;51.748;19.390;2022-12-29T00:14:25;4.70;99.90
22132;DHT22;11232;51.748;19.390;2022-12-29T00:17:09;6.00;99.90
22132;DHT22;11232;51.748;19.390;2022-12-29T00:19:35;5.00;99.90
22132;DHT22;11232;51.748;19.390;2022-12-29T00:22:18;5.40;99.90
22132;DHT22;11232;51.748;19.390;2022-12-29T00:25:04;4.70;99.90
22132;DHT22;11232;51.748;19.390;2022-12-29T00:27:48;4.70;99.90
22132;DHT22;11232;51.748;19.390;2022-12-29T00:30:32;5.40;99.90
22132;DHT22;11232;51.748;19.390;2022-12-29T00:33:20;4.70;99.90
22132;DHT22;11232;51.748;19.390;2022-12-29T00:36:27;4.70;99.90
22132;DHT22;11232;51.748;19.390;2022-12-29T00:39:16;4.70;99.90
22132;DHT22;11232;51.748;19.390;2022-12-29T00:42:06;4.70;99.90
22132;DHT22;11232;51.748;19.390;2022-12-29T00:44:50;4.80;99.90
22132;DHT22;11232;51.748;19.390;2022-12-29T00:47:16;4.70;99.90
22132;DHT22;11232;51.748;19.390;2022-12-29T00:49:42;4.80;99.90
22132;DHT22;11232;51.748;19.390;2022-12-29T00:52:10;4.70;99.90
22132;DHT22;11232;51.748;19.390;2022-12-29T00:54:37;5.80;99.90
22132;DHT22;11232;51.748;19.390;2022-12-29T00:57:05;4.80;99.90
22132;DHT22;11232;51.748;19.390;2022-12-29T00:59:31;6.40;99.90
22132;DHT22;11232;51.748;19.390;2022-12-29T01:01:57;5.20;99.90
22132;DHT22;11232;51.748;19.390;2022-12-29T01:04:25;4.80;99.90
22132;DHT22;11232;51.748;19.390;2022-12-29T01:06:51;4.80;99.90
22132;DHT22;11232;51.748;19.390;2022-12-29T01:09:18;5.20;99.90
22132;DHT22;11232;51.748;19.390;2022-12-29T01:15:24;4.80;99.90
22132;DHT22;11232;51.748;19.390;2022-12-29T01:17:50;4.80;99.90
22132;DHT22;11232;51.748;19.390;2022-12-29T01:20:15;4.80;99.90
22132;DHT22;11232;51.748;19.390;2022-12-29T01:22:41;4.90;99.90
22132;DHT22;11232;51.748;19.390;2022-12-29T01:25:08;4.90;99.90
22132;DHT22;11232;51.748;19.390;2022-12-29T01:27:33;4.80;99.90
22132;DHT22;11232;51.748;19.390;2022-12-29T01:29:59;4.90;99.90
22132;DHT22;11232;51.748;19.390;2022-12-29T01:32:24;5.00;99.90
22132;DHT22;11232;51.748;19.390;2022-12-29T01:34:50;4.90;99.90
22132;DHT22;11232;51.748;19.390;2022-12-29T01:37:16;4.90;99.90
22132;DHT22;11232;51.748;19.390;2022-12-29T01:39:41;4.90;99.90
22132;DHT22;11232;51.748;19.390;2022-12-29T01:42:16;4.90;99.90
22132;DHT22;11232;51.748;19.390;2022-12-29T01:45:01;5.00;99.90
22132;DHT22;11232;51.748;19.390;2022-12-29T01:47:32;4.90;99.90
22132;DHT22;11232;51.748;19.390;2022-12-29T01:50:14;5.00;99.90
22132;DHT22;11232;51.748;19.390;2022-12-29T01:52:48;5.00;99.90
22132;DHT22;11232;51.748;19.390;2022-12-29T01:55:15;5.30;99.90
22132;DHT22;11232;51.748;19.390;2022-12-29T01:57:45;5.40;99.90
22132;DHT22;11232;51.748;19.390;2022-12-29T02:00:13;5.10;99.90
22132;DHT22;11232;51.748;19.390;2022-12-29T02:02:41;5.10;99.90
22132;DHT22;11232;51.748;19.390;2022-12-29T02:05:14;5.10;99.90
22132;DHT22;11232;51.748;19.390;2022-12-29T02:07:42;5.10;99.90
22132;DHT22;11232;51.748;19.390;2022-12-29T02:10:08;5.20;99.90
22132;DHT22;11232;51.748;19.390;2022-12-29T02:12:33;5.10;99.90
22132;DHT22;11232;51.748;19.390;2022-12-29T02:15:01;5.00;99.90
22132;DHT22;11232;51.748;19.390;2022-12-29T02:37:24;5.10;99.90
22132;DHT22;11232;51.748;19.390;2022-12-29T02:40:06;5.10;99.90
22132;DHT22;11232;51.748;19.390;2022-12-29T02:43:04;5.10;99.90
22132;DHT22;11232;51.748;19.390;2022-12-29T02:48:28;5.10;99.90
22132;DHT22;11232;51.748;19.390;2022-12-29T02:51:06;5.10;99.90
22132;DHT22;11232;51.748;19.390;2022-12-29T02:53:35;5.10;99.90
22132;DHT22;11232;51.748;19.390;2022-12-29T02:56:20;5.10;99.90
22132;DHT22;11232;51.748;19.390;2022-12-29T02:58:46;5.10;99.90
22132;DHT22;11232;51.748;19.390;2022-12-29T03:02:13;5.10;99.90
22132;DHT22;11232;51.748;19.390;2022-12-29T03:05:06;5.20;99.90
22132;DHT22;11232;51.748;19.390;2022-12-29T03:13:13;5.20;99.90
22132;DHT22;11232;51.748;19.390;2022-12-29T03:16:23;5.20;99.90
22132;DHT22;11232;51.748;19.390;2022-12-29T03:23:45;5.10;99.90
22132;DHT22;11232;51.748;19.390;2022-12-29T03:26:16;5.10;99.90
22132;DHT22;11232;51.748;19.390;2022-12-29T03:28:51;5.10;99.90
22132;DHT22;11232;51.748;19.390;2022-12-29T03:31:19;4.90;99.90
22132;DHT22;11232;51.748;19.390;2022-12-29T03:33:49;5.20;99.90
22132;DHT22;11232;51.748;19.390;2022-12-29T03:36:32;5.20;99.90
22132;DHT22;11232;51.748;19.390;2022-12-29T03:39:09;5.20;99.90
22132;DHT22;11232;51.748;19.390;2022-12-29T03:41:37;5.10;99.90
22132;DHT22;11232;51.748;19.390;2022-12-29T03:44:08;5.10;99.90
22132;DHT22;11232;51.748;19.390;2022-12-29T03:46:34;5.20;99.90
22132;DHT22;11232;51.748;19.390;2022-12-29T03:49:00;5.50;99.90
22132;DHT22;11232;51.748;19.390;2022-12-29T03:51:26;5.20;99.90
22132;DHT22;11232;51.748;19.390;2022-12-29T03:53:51;5.20;99.90
22132;DHT22;11232;51.748;19.390;2022-12-29T03:56:17;6.30;99.90
22132;DHT22;11232;51.748;19.390;2022-12-29T03:58:42;5.20;99.90
22132;DHT22;11232;51.748;19.390;2022-12-29T04:01:08;5.20;99.90
22132;DHT22;11232;51.748;19.390;2022-12-29T04:03:34;6.70;99.90
22132;DHT22;11232;51.748;19.390;2022-12-29T04:05:59;5.30;99.90
22132;DHT22;11232;51.748;19.390;2022-12-29T04:08:25;5.20;99.90
22132;DHT22;11232;51.748;19.390;2022-12-29T04:10:50;5.80;99.90
22132;DHT22;11232;51.748;19.390;2022-12-29T04:13:16;5.70;99.90
22132;DHT22;11232;51.748;19.390;2022-12-29T04:15:45;5.30;99.90
22132;DHT22;11232;51.748;19.390;2022-12-29T04:18:11;5.30;99.90
22132;DHT22;11232;51.748;19.390;2022-12-29T04:20:37;5.30;99.90
22132;DHT22;11232;51.748;19.390;2022-12-29T04:23:22;5.20;99.90
22132;DHT22;11232;51.748;19.390;2022-12-29T04:25:47;5.20;99.90
22132;DHT22;11232;51.748;19.390;2022-12-29T04:28:14;5.20;99.90
22132;DHT22;11232;51.748;19.390;2022-12-29T04:30:40;5.30;99.90
22132;DHT22;11232;51.748;19.390;2022-12-29T04:33:05;7.20;99.90
22132;DHT22;11232;51.748;19.390;2022-12-29T04:35:31;5.40;99.90
22132;DHT22;11232;51.748;19.390;2022-12-29T04:37:57;5.30;99.90
22132;DHT22;11232;51.748;19.390;2022-12-29T04:40:22;5.30;99.90
22132;DHT22;11232;51.748;19.390;2022-12-29T04:42:49;5.30;99.90
22132;DHT22;11232;51.748;19.390;2022-12-29T04:45:15;5.80;99.90
22132;DHT22;11232;51.748;19.390;2022-12-29T04:47:40;5.30;99.90
22132;DHT22;11232;51.748;19.390;2022-12-29T04:50:06;5.30;99.90
22132;DHT22;11232;51.748;19.390;2022-12-29T04:52:32;5.30;99.90
22132;DHT22;11232;51.748;19.390;2022-12-29T04:54:58;5.70;99.90
22132;DHT22;11232;51.748;19.390;2022-12-29T04:57:24;5.30;99.90
22132;DHT22;11232;51.748;19.390;2022-12-29T04:59:49;6.70;99.90
22132;DHT22;11232;51.748;19.390;2022-12-29T05:02:16;5.40;99.90
22132;DHT22;11232;51.748;19.390;2022-12-29T05:04:41;6.30;99.90
22132;DHT22;11232;51.748;19.390;2022-12-29T05:07:07;5.40;99.90
22132;DHT22;11232;51.748;19.390;2022-12-29T05:09:33;5.40;99.90
22132;DHT22;11232;51.748;19.390;2022-12-29T05:11:58;5.40;99.90
22132;DHT22;11232;51.748;19.390;2022-12-29T05:14:24;6.30;99.90
22132;DHT22;11232;51.748;19.390;2022-12-29T05:16:50;5.50;99.90
22132;DHT22;11232;51.748;19.390;2022-12-29T05:19:15;5.80;99.90
22132;DHT22;11232;51.748;19.390;2022-12-29T05:21:42;5.50;99.90
22132;DHT22;11232;51.748;19.390;2022-12-29T05:24:08;5.50;99.90
22132;DHT22;11232;51.748;19.390;2022-12-29T05:26:34;5.50;99.90
22132;DHT22;11232;51.748;19.390;2022-12-29T05:29:00;5.70;99.90
22132;DHT22;11232;51.748;19.390;2022-12-29T05:31:26;5.70;99.90
22132;DHT22;11232;51.748;19.390;2022-12-29T05:33:51;5.70;99.90
22132;DHT22;11232;51.748;19.390;2022-12-29T05:36:18;5.70;99.90
22132;DHT22;11232;51.748;19.390;2022-12-29T05:38:44;5.70;99.90
22132;DHT22;11232;51.748;19.390;2022-12-29T05:41:09;5.70;99.90
22132;DHT22;11232;51.748;19.390;2022-12-29T05:43:35;5.60;99.90
22132;DHT22;11232;51.748;19.390;2022-12-29T05:46:01;5.50;99.90
22132;DHT22;11232;51.748;19.390;2022-12-29T05:48:27;6.40;99.90
22132;DHT22;11232;51.748;19.390;2022-12-29T05:50:52;6.10;99.90
22132;DHT22;11232;51.748;19.390;2022-12-29T05:53:23;5.40;99.90
22132;DHT22;11232;51.748;19.390;2022-12-29T05:55:49;5.40;99.90
22132;DHT22;11232;51.748;19.390;2022-12-29T05:58:16;5.40;99.90
22132;DHT22;11232;51.748;19.390;2022-12-29T06:00:41;5.40;99.90
22132;DHT22;11232;51.748;19.390;2022-12-29T06:03:07;5.40;99.90
22132;DHT22;11232;51.748;19.390;2022-12-29T06:05:33;5.40;99.90
22132;DHT22;11232;51.748;19.390;2022-12-29T06:07:59;5.40;99.90
22132;DHT22;11232;51.748;19.390;2022-12-29T06:10:24;5.40;99.90
22132;DHT22;11232;51.748;19.390;2022-12-29T06:12:50;5.40;99.90
22132;DHT22;11232;51.748;19.390;2022-12-29T06:15:16;5.40;99.90
22132;DHT22;11232;51.748;19.390;2022-12-29T06:17:42;5.40;99.90
22132;DHT22;11232;51.748;19.390;2022-12-29T06:20:09;5.40;99.90
22132;DHT22;11232;51.748;19.390;2022-12-29T06:22:35;5.50;99.90
22132;DHT22;11232;51.748;19.390;2022-12-29T06:25:01;5.50;99.90
22132;DHT22;11232;51.748;19.390;2022-12-29T06:27:28;5.50;99.90
22132;DHT22;11232;51.748;19.390;2022-12-29T06:29:53;5.50;99.90
22132;DHT22;11232;51.748;19.390;2022-12-29T06:32:19;5.50;99.90
22132;DHT22;11232;51.748;19.390;2022-12-29T06:34:45;5.50;99.90
22132;DHT22;11232;51.748;19.390;2022-12-29T06:37:11;5.50;99.90
22132;DHT22;11232;51.748;19.390;2022-12-29T06:39:37;5.50;99.90
22132;DHT22;11232;51.748;19.390;2022-12-29T06:42:03;5.40;99.90
22132;DHT22;11232;51.748;19.390;2022-12-29T06:44:28;5.40;99.90
22132;DHT22;11232;51.748;19.390;2022-12-29T06:46:55;5.40;99.90
22132;DHT22;11232;51.748;19.390;2022-12-29T06:49:20;5.30;99.90
22132;DHT22;11232;51.748;19.390;2022-12-29T06:51:46;5.40;99.90
22132;DHT22;11232;51.748;19.390;2022-12-29T06:54:12;5.40;99.90
22132;DHT22;11232;51.748;19.390;2022-12-29T06:56:37;5.40;99.90
22132;DHT22;11232;51.748;19.390;2022-12-29T06:59:03;5.40;99.90
22132;DHT22;11232;51.748;19.390;2022-12-29T07:01:29;5.40;99.90
22132;DHT22;11232;51.748;19.390;2022-12-29T07:03:54;5.40;99.90
22132;DHT22;11232;51.748;19.390;2022-12-29T07:06:20;5.40;99.90
22132;DHT22;11232;51.748;19.390;2022-12-29T07:08:46;5.50;99.90
22132;DHT22;11232;51.748;19.390;2022-12-29T07:11:12;5.50;99.90
22132;DHT22;11232;51.748;19.390;2022-12-29T07:13:38;5.50;99.90
22132;DHT22;11232;51.748;19.390;2022-12-29T07:16:09;5.50;99.90
22132;DHT22;11232;51.748;19.390;2022-12-29T07:18:36;5.60;99.90
22132;DHT22;11232;51.748;19.390;2022-12-29T07:21:02;5.60;99.90
22132;DHT22;11232;51.748;19.390;2022-12-29T07:23:28;5.70;99.90
22132;DHT22;11232;51.748;19.390;2022-12-29T07:26:05;5.70;99.90
22132;DHT22;11232;51.748;19.390;2022-12-29T07:28:31;5.60;99.90
22132;DHT22;11232;51.748;19.390;2022-12-29T07:30:58;5.70;99.90
22132;DHT22;11232;51.748;19.390;2022-12-29T07:33:24;5.60;99.90
22132;DHT22;11232;51.748;19.390;2022-12-29T07:35:50;5.60;99.90
22132;DHT22;11232;51.748;19.390;2022-12-29T07:38:16;5.60;99.90
22132;DHT22;11232;51.748;19.390;2022-12-29T07:40:42;5.60;99.90
22132;DHT22;11232;51.748;19.390;2022-12-29T07:43:08;5.60;99.90
22132;DHT22;11232;51.748;19.390;2022-12-29T07:45:37;5.70;99.90
22132;DHT22;11232;51.748;19.390;2022-12-29T07:48:09;5.40;99.90
22132;DHT22;11232;51.748;19.390;2022-12-29T07:50:38;7.10;99.90
22132;DHT22;11232;51.748;19.390;2022-12-29T07:53:04;5.80;99.90
22132;DHT22;11232;51.748;19.390;2022-12-29T07:55:33;5.70;99.90
22132;DHT22;11232;51.748;19.390;2022-12-29T07:58:01;5.90;99.90
22132;DHT22;11232;51.748;19.390;2022-12-29T08:00:27;5.80;99.90
22132;DHT22;11232;51.748;19.390;2022-12-29T08:02:52;5.80;99.90
22132;DHT22;11232;51.748;19.390;2022-12-29T08:05:18;7.60;99.90
22132;DHT22;11232;51.748;19.390;2022-12-29T08:07:45;6.90;99.90
22132;DHT22;11232;51.748;19.390;2022-12-29T08:10:11;7.70;99.90
22132;DHT22;11232;51.748;19.390;2022-12-29T08:12:41;7.10;99.90
22132;DHT22;11232;51.748;19.390;2022-12-29T08:15:08;6.60;99.90
22132;DHT22;11232;51.748;19.390;2022-12-29T08:17:34;5.80;99.90
22132;DHT22;11232;51.748;19.390;2022-12-29T08:20:00;7.20;99.90
22132;DHT22;11232;51.748;19.390;2022-12-29T08:22:26;6.70;99.90
22132;DHT22;11232;51.748;19.390;2022-12-29T08:24:54;6.10;99.90
22132;DHT22;11232;51.748;19.390;2022-12-29T08:27:19;5.60;99.90
22132;DHT22;11232;51.748;19.390;2022-12-29T08:29:45;7.20;99.90
22132;DHT22;11232;51.748;19.390;2022-12-29T08:32:11;7.20;99.90
22132;DHT22;11232;51.748;19.390;2022-12-29T08:34:36;6.00;99.90
22132;DHT22;11232;51.748;19.390;2022-12-29T08:37:02;6.80;99.90
22132;DHT22;11232;51.748;19.390;2022-12-29T08:39:28;7.40;99.90
22132;DHT22;11232;51.748;19.390;2022-12-29T08:41:54;7.40;99.90
22132;DHT22;11232;51.748;19.390;2022-12-29T08:44:20;7.60;99.90
22132;DHT22;11232;51.748;19.390;2022-12-29T08:46:53;6.10;99.90
22132;DHT22;11232;51.748;19.390;2022-12-29T08:49:19;7.40;99.90
22132;DHT22;11232;51.748;19.390;2022-12-29T08:51:45;7.20;99.90
22132;DHT22;11232;51.748;19.390;2022-12-29T08:54:10;6.60;99.90
22132;DHT22;11232;51.748;19.390;2022-12-29T08:56:36;7.70;99.90
22132;DHT22;11232;51.748;19.390;2022-12-29T08:59:02;6.30;99.90
22132;DHT22;11232;51.748;19.390;2022-12-29T09:01:27;6.40;99.90
22132;DHT22;11232;51.748;19.390;2022-12-29T09:03:54;6.40;99.90
22132;DHT22;11232;51.748;19.390;2022-12-29T09:06:20;6.30;99.90
22132;DHT22;11232;51.748;19.390;2022-12-29T09:08:46;7.70;99.90
22132;DHT22;11232;51.748;19.390;2022-12-29T09:11:16;6.60;99.90
22132;DHT22;11232;51.748;19.390;2022-12-29T09:13:43;8.10;99.90
22132;DHT22;11232;51.748;19.390;2022-12-29T09:16:15;6.60;99.90
22132;DHT22;11232;51.748;19.390;2022-12-29T09:18:42;7.70;99.90
22132;DHT22;11232;51.748;19.390;2022-12-29T09:21:10;7.30;99.90
22132;DHT22;11232;51.748;19.390;2022-12-29T09:23:36;8.30;99.90
22132;DHT22;11232;51.748;19.390;2022-12-29T09:26:02;8.40;99.90
22132;DHT22;11232;51.748;19.390;2022-12-29T09:28:33;7.30;99.90
22132;DHT22;11232;51.748;19.390;2022-12-29T09:30:59;7.00;99.90
22132;DHT22;11232;51.748;19.390;2022-12-29T09:33:26;6.10;99.90
22132;DHT22;11232;51.748;19.390;2022-12-29T09:35:56;7.10;99.90
22132;DHT22;11232;51.748;19.390;2022-12-29T09:38:22;8.20;99.90
22132;DHT22;11232;51.748;19.390;2022-12-29T09:41:14;8.00;99.90
22132;DHT22;11232;51.748;19.390;2022-12-29T09:43:50;7.70;99.90
22132;DHT22;11232;51.748;19.390;2022-12-29T09:46:36;7.20;99.90
22132;DHT22;11232;51.748;19.390;2022-12-29T09:49:13;7.10;99.90
22132;DHT22;11232;51.748;19.390;2022-12-29T09:51:52;5.80;99.90
22132;DHT22;11232;51.748;19.390;2022-12-29T09:54:51;6.90;99.90
22132;DHT22;11232;51.748;19.390;2022-12-29T09:59:59;7.20;99.90
22132;DHT22;11232;51.748;19.390;2022-12-29T10:05:27;7.40;99.90
22132;DHT22;11232;51.748;19.390;2022-12-29T10:20:20;7.20;99.90
22132;DHT22;11232;51.748;19.390;2022-12-29T10:23:26;7.20;99.90
22132;DHT22;11232;51.748;19.390;2022-12-29T10:25:58;5.30;99.90
22132;DHT22;11232;51.748;19.390;2022-12-29T10:28:30;8.50;99.90
22132;DHT22;11232;51.748;19.390;2022-12-29T10:31:09;8.40;99.90
22132;DHT22;11232;51.748;19.390;2022-12-29T10:33:42;8.90;99.90
22132;DHT22;11232;51.748;19.390;2022-12-29T10:36:19;7.90;99.90
22132;DHT22;11232;51.748;19.390;2022-12-29T10:44:59;6.30;99.90
22132;DHT22;11232;51.748;19.390;2022-12-29T10:47:33;8.30;99.90
22132;DHT22;11232;51.748;19.390;2022-12-29T10:50:03;8.70;99.90
22132;DHT22;11232;51.748;19.390;2022-12-29T10:52:50;7.50;99.90
22132;DHT22;11232;51.748;19.390;2022-12-29T10:55:32;9.50;99.90
22132;DHT22;11232;51.748;19.390;2022-12-29T10:58:12;7.50;99.90
22132;DHT22;11232;51.748;19.390;2022-12-29T11:00:39;7.40;99.90
22132;DHT22;11232;51.748;19.390;2022-12-29T11:05:49;8.10;99.90
22132;DHT22;11232;51.748;19.390;2022-12-29T11:08:33;7.60;99.90
22132;DHT22;11232;51.748;19.390;2022-12-29T11:11:05;8.00;99.90
22132;DHT22;11232;51.748;19.390;2022-12-29T11:13:57;8.00;99.90
22132;DHT22;11232;51.748;19.390;2022-12-29T11:16:29;7.80;99.90
22132;DHT22;11232;51.748;19.390;2022-12-29T11:18:59;7.20;99.90
22132;DHT22;11232;51.748;19.390;2022-12-29T11:21:36;8.70;99.90
22132;DHT22;11232;51.748;19.390;2022-12-29T11:24:27;8.20;99.90
22132;DHT22;11232;51.748;19.390;2022-12-29T11:27:18;8.60;99.90
22132;DHT22;11232;51.748;19.390;2022-12-29T11:30:01;9.40;99.90
22132;DHT22;11232;51.748;19.390;2022-12-29T11:32:42;9.50;99.90
22132;DHT22;11232;51.748;19.390;2022-12-29T11:35:35;8.40;99.90
22132;DHT22;11232;51.748;19.390;2022-12-29T11:38:02;8.50;99.90
22132;DHT22;11232;51.748;19.390;2022-12-29T11:40:29;8.50;99.90
22132;DHT22;11232;51.748;19.390;2022-12-29T11:43:11;9.50;99.90
22132;DHT22;11232;51.748;19.390;2022-12-29T11:45:45;8.30;99.90
22132;DHT22;11232;51.748;19.390;2022-12-29T11:48:20;8.90;99.90
22132;DHT22;11232;51.748;19.390;2022-12-29T11:50:54;8.40;99.90
22132;DHT22;11232;51.748;19.390;2022-12-29T11:53:24;8.80;99.90
22132;DHT22;11232;51.748;19.390;2022-12-29T11:58:27;9.60;99.90
22132;DHT22;11232;51.748;19.390;2022-12-29T12:00:53;9.30;99.90
22132;DHT22;11232;51.748;19.390;2022-12-29T12:03:24;9.40;99.90
22132;DHT22;11232;51.748;19.390;2022-12-29T12:05:56;9.20;99.90
22132;DHT22;11232;51.748;19.390;2022-12-29T12:08:43;8.30;99.90
22132;DHT22;11232;51.748;19.390;2022-12-29T12:11:12;8.30;99.90
22132;DHT22;11232;51.748;19.390;2022-12-29T12:13:59;9.20;99.90
22132;DHT22;11232;51.748;19.390;2022-12-29T12:16:56;8.40;99.90
22132;DHT22;11232;51.748;19.390;2022-12-29T12:22:19;9.80;99.90
22132;DHT22;11232;51.748;19.390;2022-12-29T12:24:49;8.50;99.90
22132;DHT22;11232;51.748;19.390;2022-12-29T12:27:26;8.40;99.90
22132;DHT22;11232;51.748;19.390;2022-12-29T12:30:21;8.40;99.90
22132;DHT22;11232;51.748;19.390;2022-12-29T12:33:24;8.50;99.90
22132;DHT22;11232;51.748;19.390;2022-12-29T12:41:25;8.20;99.90
22132;DHT22;11232;51.748;19.390;2022-12-29T12:49:40;8.60;99.90
22132;DHT22;11232;51.748;19.390;2022-12-29T12:52:38;8.80;99.90
22132;DHT22;11232;51.748;19.390;2022-12-29T13:03:45;9.90;99.90
22132;DHT22;11232;51.748;19.390;2022-12-29T13:06:26;8.90;99.90
22132;DHT22;11232;51.748;19.390;2022-12-29T13:17:38;9.10;99.90
22132;DHT22;11232;51.748;19.390;2022-12-29T13:23:03;9.00;99.90
22132;DHT22;11232;51.748;19.390;2022-12-29T13:31:37;9.20;99.90
22132;DHT22;11232;51.748;19.390;2022-12-29T13:34:47;9.10;99.90
22132;DHT22;11232;51.748;19.390;2022-12-29T13:40:15;8.70;99.90
22132;DHT22;11232;51.748;19.390;2022-12-29T13:42:43;9.40;99.90
22132;DHT22;11232;51.748;19.390;2022-12-29T13:45:17;9.10;99.90
22132;DHT22;11232;51.748;19.390;2022-12-29T13:50:29;9.20;99.90
22132;DHT22;11232;51.748;19.390;2022-12-29T13:53:29;9.20;99.90
22132;DHT22;11232;51.748;19.390;2022-12-29T13:56:17;9.20;99.90
22132;DHT22;11232;51.748;19.390;2022-12-29T13:59:16;9.30;99.90
22132;DHT22;11232;51.748;19.390;2022-12-29T14:05:05;9.30;99.90
22132;DHT22;11232;51.748;19.390;2022-12-29T14:14:45;9.20;99.90
22132;DHT22;11232;51.748;19.390;2022-12-29T14:17:21;9.50;99.90
22132;DHT22;11232;51.748;19.390;2022-12-29T14:19:52;9.80;99.90
22132;DHT22;11232;51.748;19.390;2022-12-29T14:22:27;9.20;99.90
22132;DHT22;11232;51.748;19.390;2022-12-29T14:24:53;9.20;99.90
22132;DHT22;11232;51.748;19.390;2022-12-29T14:29:46;9.50;99.90
22132;DHT22;11232;51.748;19.390;2022-12-29T14:34:51;8.90;99.90
22132;DHT22;11232;51.748;19.390;2022-12-29T14:37:28;9.60;99.90
22132;DHT22;11232;51.748;19.390;2022-12-29T14:40:17;8.80;99.90
22132;DHT22;11232;51.748;19.390;2022-12-29T14:42:44;8.80;99.90
22132;DHT22;11232;51.748;19.390;2022-12-29T14:47:51;10.30;99.90
22132;DHT22;11232;51.748;19.390;2022-12-29T14:50:41;9.70;99.90
22132;DHT22;11232;51.748;19.390;2022-12-29T14:53:44;8.70;99.90
22132;DHT22;11232;51.748;19.390;2022-12-29T14:56:12;8.60;99.90
22132;DHT22;11232;51.748;19.390;2022-12-29T14:58:46;8.60;99.90
22132;DHT22;11232;51.748;19.390;2022-12-29T15:03:49;8.60;99.90
22132;DHT22;11232;51.748;19.390;2022-12-29T15:06:18;8.90;99.90
22132;DHT22;11232;51.748;19.390;2022-12-29T15:09:10;8.50;99.90
22132;DHT22;11232;51.748;19.390;2022-12-29T15:14:38;8.50;99.90
22132;DHT22;11232;51.748;19.390;2022-12-29T15:17:30;8.50;99.90
22132;DHT22;11232;51.748;19.390;2022-12-29T15:19:58;8.50;99.90
22132;DHT22;11232;51.748;19.390;2022-12-29T15:22:25;9.50;99.90
22132;DHT22;11232;51.748;19.390;2022-12-29T15:24:55;8.50;99.90
22132;DHT22;11232;51.748;19.390;2022-12-29T15:27:23;8.40;99.90
22132;DHT22;11232;51.748;19.390;2022-12-29T15:30:00;9.00;99.90
22132;DHT22;11232;51.748;19.390;2022-12-29T15:32:29;8.50;99.90
22132;DHT22;11232;51.748;19.390;2022-12-29T15:35:31;8.50;99.90
22132;DHT22;11232;51.748;19.390;2022-12-29T15:37:58;8.90;99.90
22132;DHT22;11232;51.748;19.390;2022-12-29T15:40:30;9.10;99.90
22132;DHT22;11232;51.748;19.390;2022-12-29T15:43:14;8.60;99.90
22132;DHT22;11232;51.748;19.390;2022-12-29T15:45:46;8.50;99.90
22132;DHT22;11232;51.748;19.390;2022-12-29T15:48:18;9.70;99.90
22132;DHT22;11232;51.748;19.390;2022-12-29T15:50:44;9.20;99.90
22132;DHT22;11232;51.748;19.390;2022-12-29T15:53:19;8.40;99.90
22132;DHT22;11232;51.748;19.390;2022-12-29T15:55:52;8.40;99.90
22132;DHT22;11232;51.748;19.390;2022-12-29T15:58:24;8.40;99.90
22132;DHT22;11232;51.748;19.390;2022-12-29T16:00:56;8.40;99.90
22132;DHT22;11232;51.748;19.390;2022-12-29T16:03:24;8.40;99.90
22132;DHT22;11232;51.748;19.390;2022-12-29T16:06:10;8.80;99.90
22132;DHT22;11232;51.748;19.390;2022-12-29T16:08:42;8.30;99.90
22132;DHT22;11232;51.748;19.390;2022-12-29T16:11:24;8.90;99.90
22132;DHT22;11232;51.748;19.390;2022-12-29T16:13:52;8.30;99.90
22132;DHT22;11232;51.748;19.390;2022-12-29T16:16:26;9.00;99.90
22132;DHT22;11232;51.748;19.390;2022-12-29T16:18:56;9.20;99.90
22132;DHT22;11232;51.748;19.390;2022-12-29T16:21:42;8.20;99.90
22132;DHT22;11232;51.748;19.390;2022-12-29T16:24:14;8.20;99.90
22132;DHT22;11232;51.748;19.390;2022-12-29T16:26:49;8.20;99.90
22132;DHT22;11232;51.748;19.390;2022-12-29T16:29:15;8.50;99.90
22132;DHT22;11232;51.748;19.390;2022-12-29T16:31:54;8.40;99.90
22132;DHT22;11232;51.748;19.390;2022-12-29T16:34:31;6.10;99.90
22132;DHT22;11232;51.748;19.390;2022-12-29T16:37:19;8.40;99.90
22132;DHT22;11232;51.748;19.390;2022-12-29T16:39:49;9.70;99.90
22132;DHT22;11232;51.748;19.390;2022-12-29T16:42:35;8.30;99.90
22132;DHT22;11232;51.748;19.390;2022-12-29T16:50:42;7.90;99.90
22132;DHT22;11232;51.748;19.390;2022-12-29T16:53:19;8.40;99.90
22132;DHT22;11232;51.748;19.390;2022-12-29T16:55:48;8.10;99.90
22132;DHT22;11232;51.748;19.390;2022-12-29T16:58:23;8.80;99.90
22132;DHT22;11232;51.748;19.390;2022-12-29T17:01:17;7.30;99.90
22132;DHT22;11232;51.748;19.390;2022-12-29T17:03:51;7.90;99.90
22132;DHT22;11232;51.748;19.390;2022-12-29T17:06:21;9.10;99.90
22132;DHT22;11232;51.748;19.390;2022-12-29T17:09:31;7.90;99.90
22132;DHT22;11232;51.748;19.390;2022-12-29T17:11:58;8.40;99.90
22132;DHT22;11232;51.748;19.390;2022-12-29T17:14:48;7.90;99.90
22132;DHT22;11232;51.748;19.390;2022-12-29T17:17:19;8.40;99.90
22132;DHT22;11232;51.748;19.390;2022-12-29T17:19:51;8.10;99.90
22132;DHT22;11232;51.748;19.390;2022-12-29T17:22:23;8.00;99.90
22132;DHT22;11232;51.748;19.390;2022-12-29T17:24:53;7.20;99.90
22132;DHT22;11232;51.748;19.390;2022-12-29T17:29:51;7.90;99.90
22132;DHT22;11232;51.748;19.390;2022-12-29T17:32:18;8.00;99.90
22132;DHT22;11232;51.748;19.390;2022-12-29T17:41:29;7.60;99.90
22132;DHT22;11232;51.748;19.390;2022-12-29T17:43:55;8.10;99.90
22132;DHT22;11232;51.748;19.390;2022-12-29T17:46:23;9.00;99.90
22132;DHT22;11232;51.748;19.390;2022-12-29T17:48:54;8.00;99.90
22132;DHT22;11232;51.748;19.390;2022-12-29T17:51:20;8.10;99.90
22132;DHT22;11232;51.748;19.390;2022-12-29T17:53:46;8.50;99.90
22132;DHT22;11232;51.748;19.390;2022-12-29T17:56:12;9.80;99.90
22132;DHT22;11232;51.748;19.390;2022-12-29T17:58:37;8.40;99.90
22132;DHT22;11232;51.748;19.390;2022-12-29T18:01:03;8.10;99.90
22132;DHT22;11232;51.748;19.390;2022-12-29T18:03:36;8.10;99.90
22132;DHT22;11232;51.748;19.390;2022-12-29T18:06:03;8.10;99.90
22132;DHT22;11232;51.748;19.390;2022-12-29T18:08:34;8.20;99.90
22132;DHT22;11232;51.748;19.390;2022-12-29T18:11:00;8.20;99.90
22132;DHT22;11232;51.748;19.390;2022-12-29T18:13:28;9.20;99.90
22132;DHT22;11232;51.748;19.390;2022-12-29T18:15:55;8.90;99.90
22132;DHT22;11232;51.748;19.390;2022-12-29T18:18:26;8.60;99.90
22132;DHT22;11232;51.748;19.390;2022-12-29T18:20:54;8.10;99.90
22132;DHT22;11232;51.748;19.390;2022-12-29T18:23:31;9.20;99.90
22132;DHT22;11232;51.748;19.390;2022-12-29T18:26:03;9.40;99.90
22132;DHT22;11232;51.748;19.390;2022-12-29T18:28:30;8.50;99.90
22132;DHT22;11232;51.748;19.390;2022-12-29T18:30:57;9.00;99.90